Time;durP1;ratioP1;P1;durP2;ratioP2;P2;SDS_P1;SDS_P2;PMS_P1;PMS_P2;Temp;Humidity;BMP_temperature;BMP_pressure;BME280_temperature;BME280_humidity;BME280_pressure;Samples;Min_cycle;Max_cycle;Signal;HPM_P1;HPM_P2
2022/10/12 00:01:07;;;;;;;42.08;26.45;;;;;;;14.97;72.59;95812.34;5141045;27;20136;-79
2022/10/12 00:03:33;;;;;;;45.13;26.35;;;;;;;15.19;73.25;95841.19;5121686;27;20039;-79
2022/10/12 00:06:15;;;;;;;44.33;26.63;;;;;;;14.87;72.86;95777.78;5135179;27;20500;-79
2022/10/12 00:08:41;;;;;;;37.83;25.02;;;;;;;15.11;72.87;95814.31;5141646;27;20115;-79
2022/10/12 00:11:11;;;;;;;40.40;27.05;;;;;;;14.99;72.60;95802.19;5123208;27;20066;-79
2022/10/12 00:13:37;;;;;;;41.80;24.67;;;;;;;15.25;72.78;95828.59;5122341;27;20034;-79
2022/10/12 00:16:04;;;;;;;35.47;23.48;;;;;;;14.94;73.17;95778.22;5114467;27;20436;-79
2022/10/12 00:18:30;;;;;;;40.78;25.25;;;;;;;15.02;72.73;95800.81;5122439;27;20062;-79
2022/10/12 00:21:13;;;;;;;39.58;24.77;;;;;;;15.27;72.43;95832.56;5122677;27;20047;-79
2022/10/12 00:23:39;;;;;;;38.10;23.15;;;;;;;15.29;71.69;95829.59;5122603;27;20453;-79
2022/10/12 00:26:11;;;;;;;40.60;25.20;;;;;;;15.16;71.88;95815.06;5109094;28;20060;-79
2022/10/12 00:28:37;;;;;;;36.40;22.73;;;;;;;15.13;72.02;95807.63;5121742;27;20035;-79
2022/10/12 00:31:08;;;;;;;39.13;24.02;;;;;;;15.25;71.85;95826.72;5123767;27;20062;-79
2022/10/12 00:33:33;;;;;;;36.72;24.17;;;;;;;15.05;72.30;95801.03;5135744;27;20039;-79
2022/10/12 00:35:59;;;;;;;37.75;24.58;;;;;;;15.19;72.35;95824.38;5109124;27;20042;-79
2022/10/12 00:38:24;;;;;;;38.05;25.23;;;;;;;15.20;72.73;95824.09;5140092;27;20038;-79
2022/10/12 00:40:50;;;;;;;40.53;26.02;;;;;;;15.23;73.01;95820.88;5143342;27;20039;-79
2022/10/12 00:43:33;;;;;;;49.00;27.65;;;;;;;15.16;72.50;95820.41;5124145;27;20035;-79
2022/10/12 00:46:00;;;;;;;45.08;27.55;;;;;;;15.26;72.71;95827.50;5142779;27;20054;-79
2022/10/12 00:48:26;;;;;;;42.47;27.40;;;;;;;15.25;72.74;95824.06;5123340;27;20049;-79
2022/10/12 00:50:53;;;;;;;43.70;26.83;;;;;;;14.89;72.53;95777.47;5123386;27;20038;-79
2022/10/12 00:53:23;;;;;;;48.92;27.80;;;;;;;14.95;72.60;95779.03;5124362;27;20035;-79
2022/10/12 00:55:56;;;;;;;51.25;28.35;;;;;;;15.24;72.75;95822.47;5142577;27;20043;-79
2022/10/12 00:58:23;;;;;;;44.50;28.08;;;;;;;15.20;72.70;95805.38;5123128;27;20046;-79
2022/10/12 01:00:49;;;;;;;49.65;28.02;;;;;;;15.09;72.98;95790.59;5142377;27;20047;-80
2022/10/12 01:03:19;;;;;;;49.78;29.65;;;;;;;15.17;73.03;95805.97;5125278;27;20051;-79
2022/10/12 01:05:45;;;;;;;50.70;28.38;;;;;;;14.93;72.67;95765.94;5123830;27;20045;-80
2022/10/12 01:08:10;;;;;;;46.97;28.13;;;;;;;15.04;73.08;95788.75;5142262;27;20444;-79
2022/10/12 01:10:35;;;;;;;51.67;29.33;;;;;;;15.13;73.09;95802.28;5143249;27;20045;-79
2022/10/12 01:13:02;;;;;;;55.28;31.15;;;;;;;14.74;72.48;95741.06;5124392;27;20049;-79
2022/10/12 01:15:38;;;;;;;52.58;28.83;;;;;;;15.21;72.72;95823.00;5124102;27;20107;-80
2022/10/12 01:18:20;;;;;;;44.55;28.15;;;;;;;14.78;72.88;95755.44;5123832;27;20078;-79
2022/10/12 01:21:01;;;;;;;49.20;29.13;;;;;;;15.14;72.85;95825.25;5112647;27;20104;-79
2022/10/12 01:23:53;;;;;;;45.47;28.15;;;;;;;15.18;73.01;95828.16;5111785;27;20039;-79
2022/10/12 01:26:44;;;;;;;44.97;27.92;;;;;;;15.11;73.18;95827.69;5110869;27;20118;-79
2022/10/12 01:29:51;;;;;;;42.22;26.10;;;;;;;14.77;72.80;95761.88;5134956;27;20047;-79
2022/10/12 01:32:23;;;;;;;46.83;26.05;;;;;;;15.12;73.21;95815.91;5126210;27;20044;-80
2022/10/12 01:35:01;;;;;;;43.05;24.42;;;;;;;14.86;73.67;95789.53;5104431;28;20104;-79
2022/10/12 01:37:54;;;;;;;38.15;24.70;;;;;;;15.15;73.55;95818.03;5121872;27;20103;-80
2022/10/12 01:40:29;;;;;;;40.75;26.02;;;;;;;14.93;73.16;95784.63;5105510;27;20140;-79
2022/10/12 01:42:56;;;;;;;41.38;25.52;;;;;;;15.00;73.08;95792.31;5117979;27;20085;-76
2022/10/12 01:45:22;;;;;;;39.35;24.05;;;;;;;14.92;73.36;95783.03;5114067;27;20498;-76
2022/10/12 01:47:53;;;;;;;38.95;24.65;;;;;;;15.01;73.18;95794.69;5134431;27;20080;-76
2022/10/12 01:50:21;;;;;;;41.40;25.23;;;;;;;15.13;73.24;95818.31;5117582;27;20493;-76
2022/10/12 01:52:46;;;;;;;42.85;24.30;;;;;;;15.13;73.41;95822.84;5133035;27;20045;-76
2022/10/12 01:55:18;;;;;;;39.75;23.85;;;;;;;15.13;72.66;95823.66;5118638;27;20043;-77
2022/10/12 01:57:57;;;;;;;38.65;22.88;;;;;;;15.10;73.17;95826.91;5139610;27;20047;-77
2022/10/12 02:00:22;;;;;;;36.80;22.73;;;;;;;15.13;73.29;95833.53;5139485;27;20468;-77
2022/10/12 02:03:16;;;;;;;40.92;23.85;;;;;;;15.10;72.87;95821.56;5120969;27;20049;-78
2022/10/12 02:05:59;;;;;;;33.63;22.92;;;;;;;14.96;73.19;95809.97;5118669;27;20051;-77
2022/10/12 02:08:41;;;;;;;34.83;22.10;;;;;;;15.09;73.37;95830.66;5137439;27;20051;-77
2022/10/12 02:11:08;;;;;;;37.92;22.02;;;;;;;15.12;73.17;95831.94;5121500;27;20043;-77
2022/10/12 02:13:46;;;;;;;42.00;21.83;;;;;;;14.76;73.14;95778.16;5121037;27;20054;-77
2022/10/12 02:16:16;;;;;;;41.45;22.50;;;;;;;14.42;73.47;95725.69;5131706;27;20049;-77
2022/10/12 02:18:46;;;;;;;35.73;21.80;;;;;;;14.60;73.43;95756.19;5137651;27;20547;-77
2022/10/12 02:21:17;;;;;;;38.85;22.58;;;;;;;15.10;73.64;95836.81;5118307;27;20050;-77
2022/10/12 02:23:46;;;;;;;32.85;21.73;;;;;;;15.00;73.17;95824.34;5119185;27;20045;-77
2022/10/12 02:26:14;;;;;;;39.58;21.25;;;;;;;15.11;73.16;95836.50;5119430;27;20397;-77
2022/10/12 02:28:42;;;;;;;32.55;21.13;;;;;;;14.69;72.92;95773.16;5138756;27;20046;-77
2022/10/12 02:31:58;;;;;;;40.67;22.48;;;;;;;14.66;73.09;95773.72;5120611;27;20047;-77
2022/10/12 02:34:35;;;;;;;35.42;20.10;;;;;;;15.13;73.09;95846.91;5035667;28;20148;-77
2022/10/12 02:37:08;;;;;;;33.78;21.85;;;;;;;14.77;72.92;95801.91;5034128;28;20045;-77
2022/10/12 02:39:48;;;;;;;30.80;19.55;;;;;;;15.11;73.06;95843.72;5094595;27;20470;-77
2022/10/12 02:42:19;;;;;;;35.75;21.73;;;;;;;14.56;72.92;95761.31;5126467;28;20039;-77
2022/10/12 02:44:46;;;;;;;33.40;21.65;;;;;;;14.95;72.67;95819.09;5124847;27;20042;-77
2022/10/12 02:47:14;;;;;;;33.88;21.83;;;;;;;14.98;72.83;95821.16;5142329;27;20119;-77
2022/10/12 02:49:42;;;;;;;33.63;20.00;;;;;;;14.61;72.86;95765.78;5124286;27;20527;-77
2022/10/12 02:52:08;;;;;;;31.98;21.67;;;;;;;15.10;72.91;95840.28;5142598;27;20050;-77
2022/10/12 02:54:35;;;;;;;29.88;20.15;;;;;;;15.10;72.69;95842.94;5124620;27;20039;-77
2022/10/12 02:57:00;;;;;;;31.88;20.25;;;;;;;14.94;72.45;95818.28;5143735;27;20039;-77
2022/10/12 02:59:26;;;;;;;32.45;20.55;;;;;;;14.78;72.38;95800.84;5142907;27;20045;-77
2022/10/12 03:01:51;;;;;;;31.63;21.17;;;;;;;15.00;72.53;95824.34;5113282;27;20039;-77
2022/10/12 03:04:17;;;;;;;31.58;19.25;;;;;;;14.53;72.01;95748.53;5120074;27;20035;-77
2022/10/12 03:06:42;;;;;;;31.70;21.00;;;;;;;14.74;72.27;95786.44;5141829;27;20035;-77
2022/10/12 03:09:08;;;;;;;33.13;19.30;;;;;;;15.05;72.49;95843.78;5122667;27;20099;-77
2022/10/12 03:11:33;;;;;;;30.83;20.20;;;;;;;15.08;72.32;95839.75;5139305;27;20035;-77
2022/10/12 03:13:59;;;;;;;30.58;19.88;;;;;;;15.06;72.44;95837.34;5133761;27;20122;-77
2022/10/12 03:16:25;;;;;;;30.05;19.83;;;;;;;14.78;72.41;95802.72;5122689;27;20042;-77
2022/10/12 03:18:51;;;;;;;35.95;21.10;;;;;;;15.03;73.09;95842.47;5122863;27;20043;-77
2022/10/12 03:21:16;;;;;;;33.13;20.30;;;;;;;14.72;72.90;95793.19;5121826;27;20031;-77
2022/10/12 03:23:42;;;;;;;34.47;21.60;;;;;;;14.74;73.33;95797.13;5122357;27;20062;-77
2022/10/12 03:26:07;;;;;;;32.65;21.02;;;;;;;14.57;73.14;95773.56;5140215;27;20039;-77
2022/10/12 03:28:33;;;;;;;34.20;21.42;;;;;;;14.96;73.12;95834.78;5140889;27;20050;-77
2022/10/12 03:30:59;;;;;;;35.55;21.52;;;;;;;14.55;73.39;95781.06;5140957;27;20525;-76
2022/10/12 03:33:24;;;;;;;31.25;20.75;;;;;;;14.59;73.08;95789.28;5122842;27;20107;-76
2022/10/12 03:35:50;;;;;;;37.67;22.08;;;;;;;14.86;73.45;95834.13;5123511;27;20067;-76
2022/10/12 03:38:17;;;;;;;32.92;20.95;;;;;;;14.89;73.79;95841.56;5123457;27;20043;-76
2022/10/12 03:40:43;;;;;;;32.15;20.23;;;;;;;14.54;73.22;95778.69;5124278;27;20037;-76
2022/10/12 03:43:09;;;;;;;35.53;22.38;;;;;;;14.78;73.53;95822.19;5142404;27;20431;-76
2022/10/12 03:45:35;;;;;;;37.58;22.23;;;;;;;14.77;73.93;95823.28;5141426;27;20117;-77
2022/10/12 03:48:01;;;;;;;34.25;21.02;;;;;;;14.54;73.74;95784.81;5122944;27;20038;-77
2022/10/12 03:50:27;;;;;;;34.03;22.30;;;;;;;14.90;74.03;95835.94;5123672;27;20148;-77
2022/10/12 03:52:52;;;;;;;36.22;22.13;;;;;;;14.88;73.95;95837.28;5122860;27;20039;-77
2022/10/12 03:55:18;;;;;;;38.65;21.80;;;;;;;14.76;73.83;95826.22;5122830;27;20035;-77
2022/10/12 03:57:44;;;;;;;38.47;24.98;;;;;;;14.87;74.04;95841.88;5124918;27;20111;-77
2022/10/12 04:00:11;;;;;;;55.63;24.83;;;;;;;14.78;74.33;95840.09;5135431;27;20039;-77
2022/10/12 04:02:37;;;;;;;46.10;25.20;;;;;;;14.34;74.25;95754.84;5120225;27;20520;-77
2022/10/12 04:05:03;;;;;;;44.55;23.73;;;;;;;14.37;74.17;95788.97;5119301;27;20484;-77
2022/10/12 04:07:29;;;;;;;47.75;22.60;;;;;;;14.19;74.34;95785.91;5141237;27;20070;-77
2022/10/12 04:09:57;;;;;;;38.13;23.83;;;;;;;14.62;74.75;95836.78;5116133;27;20136;-77
2022/10/12 04:12:23;;;;;;;42.42;23.23;;;;;;;14.29;74.66;95788.50;5118469;27;20451;-77
2022/10/12 04:14:48;;;;;;;45.15;24.63;;;;;;;14.73;74.66;95854.28;5113496;27;20252;-77
2022/10/12 04:17:15;;;;;;;49.70;23.80;;;;;;;14.75;74.65;95860.13;5137603;27;20075;-77
2022/10/12 04:19:41;;;;;;;41.40;22.73;;;;;;;14.67;74.76;95834.84;5118186;27;20043;-77
2022/10/12 04:22:06;;;;;;;49.58;23.25;;;;;;;14.58;73.99;95812.50;5118149;27;20299;-77
2022/10/12 04:24:32;;;;;;;38.03;22.13;;;;;;;14.28;74.24;95784.22;5097244;27;20028;-77
2022/10/12 04:26:59;;;;;;;39.78;22.88;;;;;;;14.38;73.77;95799.38;5086059;28;20115;-78
2022/10/12 04:29:24;;;;;;;36.42;23.08;;;;;;;14.04;73.78;95731.91;5106363;27;20054;-77
2022/10/12 04:31:49;;;;;;;37.45;23.25;;;;;;;14.89;73.60;95858.38;5096852;27;20106;-79
2022/10/12 04:34:17;;;;;;;45.65;22.65;;;;;;;14.45;73.09;95791.03;5111454;27;20058;-78
2022/10/12 04:36:42;;;;;;;43.17;22.02;;;;;;;14.39;73.55;95778.84;5116071;27;20432;-78
2022/10/12 04:39:07;;;;;;;37.90;22.38;;;;;;;14.88;73.36;95856.78;5115629;27;20127;-77
2022/10/12 04:41:33;;;;;;;44.53;23.27;;;;;;;14.52;73.34;95796.84;5126664;27;20045;-78
2022/10/12 04:43:58;;;;;;;39.35;22.95;;;;;;;14.90;73.23;95859.97;5118546;27;20047;-78
2022/10/12 04:46:25;;;;;;;38.70;23.02;;;;;;;14.90;73.46;95865.31;5108236;27;20035;-77
2022/10/12 04:48:51;;;;;;;48.78;23.75;;;;;;;14.82;73.37;95849.13;5107146;27;20047;-78
2022/10/12 04:51:16;;;;;;;39.35;23.65;;;;;;;14.79;73.70;95855.84;5124734;27;20114;-76
2022/10/12 04:53:42;;;;;;;40.03;23.42;;;;;;;14.17;74.05;95761.41;5110159;27;20118;-80
2022/10/12 04:56:08;;;;;;;39.53;23.52;;;;;;;14.91;73.87;95876.78;5112884;27;20063;-79
2022/10/12 04:58:33;;;;;;;47.08;24.55;;;;;;;14.87;73.40;95878.47;5107342;27;20515;-78
2022/10/12 05:00:59;;;;;;;46.55;24.05;;;;;;;14.60;73.66;95834.41;5112536;27;20484;-78
2022/10/12 05:03:25;;;;;;;39.90;23.33;;;;;;;14.88;73.73;95875.47;5105911;27;20042;-79
2022/10/12 05:05:50;;;;;;;38.92;23.58;;;;;;;14.93;73.63;95874.66;5103968;27;20991;-78
2022/10/12 05:08:16;;;;;;;44.28;24.05;;;;;;;14.44;73.46;95794.78;5099616;27;20058;-78
2022/10/12 05:10:41;;;;;;;42.38;24.17;;;;;;;14.55;73.51;95820.31;5111865;27;20051;-77
2022/10/12 05:13:08;;;;;;;44.63;24.05;;;;;;;14.59;73.44;95829.31;5108676;27;20046;-79
2022/10/12 05:15:34;;;;;;;40.80;23.00;;;;;;;14.60;73.44;95836.25;5096720;27;20043;-79
2022/10/12 05:17:59;;;;;;;37.25;22.98;;;;;;;14.18;73.08;95768.34;5092723;27;20050;-80
2022/10/12 05:20:25;;;;;;;46.22;23.42;;;;;;;14.62;73.41;95836.78;5124185;27;20046;-78
2022/10/12 05:22:50;;;;;;;37.85;22.65;;;;;;;14.76;73.02;95852.91;5107910;27;20039;-79
2022/10/12 05:25:18;;;;;;;36.05;22.45;;;;;;;14.94;73.21;95889.59;5106597;27;20051;-79
2022/10/12 05:27:43;;;;;;;37.33;21.60;;;;;;;14.49;73.28;95819.56;5119821;27;20043;-78
2022/10/12 05:30:09;;;;;;;34.80;22.35;;;;;;;14.62;73.32;95839.44;5093173;27;20051;-79
2022/10/12 05:32:35;;;;;;;36.15;22.30;;;;;;;14.62;73.21;95850.13;5088884;27;20044;-78
2022/10/12 05:35:00;;;;;;;45.65;22.73;;;;;;;14.77;73.47;95874.00;5099167;27;20043;-78
2022/10/12 05:37:26;;;;;;;34.05;22.27;;;;;;;14.55;73.33;95831.78;5116749;27;20046;-78
2022/10/12 05:39:51;;;;;;;37.15;22.20;;;;;;;14.62;73.28;95852.81;5100562;27;20710;-78
2022/10/12 05:42:16;;;;;;;33.75;21.05;;;;;;;15.03;73.02;95911.91;5103963;27;20111;-78
2022/10/12 05:44:42;;;;;;;32.05;22.40;;;;;;;14.44;73.10;95819.59;5106861;27;20043;-77
2022/10/12 05:47:07;;;;;;;41.47;20.60;;;;;;;14.81;73.47;95876.88;5110166;27;20051;-78
2022/10/12 05:49:33;;;;;;;31.23;21.85;;;;;;;14.76;72.95;95875.09;5101970;27;20039;-78
2022/10/12 05:51:58;;;;;;;34.65;21.25;;;;;;;14.64;72.98;95856.78;5087286;27;20101;-78
2022/10/12 05:54:25;;;;;;;37.10;22.27;;;;;;;14.91;73.08;95895.50;5106705;27;20054;-78
2022/10/12 05:56:51;;;;;;;37.67;22.20;;;;;;;14.74;72.80;95868.41;5112962;27;20042;-78
2022/10/12 05:59:16;;;;;;;42.22;22.58;;;;;;;14.86;72.58;95891.00;5101394;27;20043;-77
2022/10/12 06:01:42;;;;;;;35.40;22.05;;;;;;;14.93;73.16;95901.34;5097941;27;20125;-78
2022/10/12 06:04:07;;;;;;;34.78;22.42;;;;;;;15.12;73.00;95923.56;5113678;27;20027;-77
2022/10/12 06:06:33;;;;;;;37.10;23.13;;;;;;;15.00;72.80;95913.28;5106628;27;20042;-78
2022/10/12 06:08:58;;;;;;;37.03;22.90;;;;;;;14.80;72.69;95888.69;5118300;27;20599;-80
2022/10/12 06:11:24;;;;;;;42.10;24.75;;;;;;;15.18;72.54;95935.78;5091409;27;20040;-77
2022/10/12 06:13:50;;;;;;;36.53;23.55;;;;;;;14.76;72.64;95874.28;5093013;27;20047;-78
2022/10/12 06:16:15;;;;;;;36.22;23.23;;;;;;;14.86;72.51;95884.88;5105903;27;20066;-78
2022/10/12 06:18:40;;;;;;;43.65;28.00;;;;;;;15.29;72.57;95953.31;5101976;27;20039;-78
2022/10/12 06:21:06;;;;;;;58.03;32.72;;;;;;;14.73;72.32;95846.25;5107135;27;20044;-78
2022/10/12 06:23:32;;;;;;;49.03;28.63;;;;;;;14.29;72.24;95779.69;5116793;27;20061;-78
2022/10/12 06:25:57;;;;;;;43.47;28.85;;;;;;;14.73;72.56;95840.94;5088529;27;20035;-78
2022/10/12 06:28:22;;;;;;;52.35;28.13;;;;;;;15.14;72.45;95899.25;5123723;27;20799;-77
2022/10/12 06:30:53;;;;;;;51.03;30.10;;;;;;;15.44;72.39;95949.69;5086607;27;20036;-78
2022/10/12 06:33:19;;;;;;;50.42;34.08;;;;;;;15.06;72.27;95882.78;5102242;27;20651;-78
2022/10/12 06:35:44;;;;;;;66.65;39.08;;;;;;;14.87;71.81;95849.88;5114454;27;20127;-79
2022/10/12 06:38:09;;;;;;;64.90;41.58;;;;;;;15.09;71.71;95880.63;5099781;27;20050;-78
2022/10/12 06:40:35;;;;;;;57.45;32.55;;;;;;;15.34;71.61;95921.19;5118149;27;20031;-78
2022/10/12 06:43:01;;;;;;;54.85;29.25;;;;;;;15.60;71.40;95956.47;5115645;27;20047;-78
2022/10/12 06:45:30;;;;;;;49.85;27.38;;;;;;;15.54;71.25;95940.78;5106943;27;20039;-79
2022/10/12 06:47:56;;;;;;;46.78;26.92;;;;;;;15.68;71.40;95958.50;5111415;27;20039;-79
2022/10/12 06:50:22;;;;;;;49.22;25.30;;;;;;;15.60;71.27;95936.97;5100370;27;20035;-78
2022/10/12 06:52:47;;;;;;;49.08;26.48;;;;;;;15.54;70.61;95938.09;5108158;27;20036;-82
2022/10/12 06:55:13;;;;;;;43.97;25.73;;;;;;;15.54;70.71;95924.75;5099277;27;20039;-78
2022/10/12 06:57:38;;;;;;;38.60;23.77;;;;;;;15.35;70.68;95896.06;5112332;28;20043;-79
2022/10/12 07:00:06;;;;;;;42.67;26.75;;;;;;;15.72;70.26;95943.47;5113022;27;20130;-80
2022/10/12 07:02:32;;;;;;;40.17;23.48;;;;;;;15.37;70.11;95896.56;5096339;27;20476;-84
2022/10/12 07:05:01;;;;;;;45.33;24.85;;;;;;;15.87;70.39;95957.75;5114473;27;20068;-79
2022/10/12 07:07:31;;;;;;;41.92;24.63;;;;;;;15.30;70.05;95876.63;5102099;27;20051;-78
2022/10/12 07:09:56;;;;;;;49.40;25.48;;;;;;;15.66;70.03;95917.88;5115150;27;20054;-78
2022/10/12 07:12:22;;;;;;;46.47;24.77;;;;;;;15.64;70.31;95925.41;5086065;27;20509;-79
2022/10/12 07:14:47;;;;;;;42.20;25.75;;;;;;;15.42;69.68;95890.34;5115512;27;20031;-79
2022/10/12 07:17:13;;;;;;;47.08;26.17;;;;;;;15.74;69.46;95932.50;5125374;27;20125;-79
2022/10/12 07:19:38;;;;;;;40.58;24.55;;;;;;;15.51;69.32;95888.66;5118556;27;20089;-79
2022/10/12 07:22:03;;;;;;;44.15;24.52;;;;;;;15.57;69.17;95890.19;5103944;28;20566;-78
2022/10/12 07:24:35;;;;;;;48.42;25.95;;;;;;;15.47;68.75;95874.28;5111017;27;20036;-78
2022/10/12 07:27:02;;;;;;;53.08;25.60;;;;;;;15.75;68.77;95916.16;5109791;27;20051;-79
2022/10/12 07:29:30;;;;;;;47.30;26.85;;;;;;;16.13;68.59;95967.03;5101089;27;20139;-79
2022/10/12 07:31:57;;;;;;;45.30;25.92;;;;;;;15.19;68.43;95821.69;5094594;27;20070;-79
2022/10/12 07:34:22;;;;;;;46.47;24.42;;;;;;;15.67;68.59;95883.94;5109719;27;20043;-79
2022/10/12 07:36:48;;;;;;;46.38;26.75;;;;;;;15.74;68.32;95889.72;5094804;28;20047;-78
2022/10/12 07:39:13;;;;;;;52.03;23.35;;;;;;;15.94;68.43;95929.56;5101884;27;20538;-79
2022/10/12 07:41:38;;;;;;;40.50;21.77;;;;;;;15.96;68.28;95924.72;5091290;27;20043;-78
2022/10/12 07:44:04;;;;;;;39.60;21.60;;;;;;;15.88;68.12;95905.84;5110789;27;20066;-79
2022/10/12 07:46:29;;;;;;;39.20;22.30;;;;;;;16.30;67.75;95978.03;5128249;27;20047;-79
2022/10/12 07:48:56;;;;;;;38.72;22.30;;;;;;;15.94;67.78;95915.41;5104405;27;20102;-78
2022/10/12 07:51:22;;;;;;;33.30;21.20;;;;;;;15.78;67.38;95888.06;5122924;27;20031;-80
2022/10/12 07:53:47;;;;;;;45.33;23.30;;;;;;;16.08;67.48;95938.47;5088217;27;20385;-79
2022/10/12 07:56:16;;;;;;;33.03;21.23;;;;;;;16.20;67.73;95949.50;5113487;27;20070;-78
2022/10/12 07:58:52;;;;;;;42.75;22.73;;;;;;;16.00;67.63;95923.06;5089437;27;20050;-78
2022/10/12 08:01:19;;;;;;;39.92;22.80;;;;;;;15.74;67.82;95879.81;5108515;27;20042;-78
2022/10/12 08:03:45;;;;;;;36.80;22.60;;;;;;;16.01;67.75;95916.63;5112090;27;20039;-78
2022/10/12 08:06:17;;;;;;;42.17;22.35;;;;;;;16.34;68.06;95973.66;5102277;27;20050;-78
2022/10/12 08:08:43;;;;;;;41.53;20.80;;;;;;;16.15;67.81;95949.59;5121334;27;20061;-80
2022/10/12 08:11:09;;;;;;;40.00;20.42;;;;;;;16.29;67.47;95967.59;5109596;27;20104;-78
2022/10/12 08:13:35;;;;;;;30.25;20.17;;;;;;;16.01;67.57;95932.69;5109962;27;20039;-79
2022/10/12 08:16:02;;;;;;;36.25;21.95;;;;;;;16.23;67.78;95950.81;5112873;27;20039;-79
2022/10/12 08:18:28;;;;;;;46.58;24.25;;;;;;;15.88;67.83;95890.56;5108002;27;20072;-77
2022/10/12 08:20:53;;;;;;;51.72;24.42;;;;;;;16.11;68.24;95929.03;5119955;27;20043;-77
2022/10/12 08:23:19;;;;;;;50.30;23.92;;;;;;;16.43;67.85;95969.25;5123313;27;20093;-79
2022/10/12 08:25:55;;;;;;;40.22;22.05;;;;;;;16.25;67.58;95931.81;5102853;27;20126;-78
2022/10/12 08:28:21;;;;;;;38.30;20.50;;;;;;;16.47;67.34;95974.84;5123676;27;20130;-79
2022/10/12 08:30:47;;;;;;;29.02;19.63;;;;;;;16.15;67.85;95919.38;5114112;27;20050;-79
2022/10/12 08:33:12;;;;;;;43.70;20.50;;;;;;;16.59;67.73;95969.81;5138346;27;20043;-78
2022/10/12 08:35:39;;;;;;;36.47;20.63;;;;;;;16.67;67.42;95977.22;5108041;27;20812;-78
2022/10/12 08:38:05;;;;;;;35.45;19.80;;;;;;;16.17;67.05;95872.47;5112801;27;20050;-78
2022/10/12 08:40:34;;;;;;;30.55;19.77;;;;;;;16.56;67.06;95946.28;5109803;27;20043;-77
2022/10/12 08:43:33;;;;;;;40.83;21.38;;;;;;;16.54;67.21;95946.59;5090993;27;20051;-78
2022/10/12 08:46:01;;;;;;;38.17;20.27;;;;;;;16.56;66.46;95924.88;5098625;27;20042;-76
2022/10/12 08:48:33;;;;;;;46.08;20.63;;;;;;;16.89;66.41;95990.78;5109661;27;20700;-79
2022/10/12 08:51:04;;;;;;;30.20;20.45;;;;;;;16.89;66.41;95965.88;5106568;27;20134;-77
2022/10/12 08:53:29;;;;;;;32.97;18.80;;;;;;;16.90;66.32;95965.59;5087997;27;20336;-79
2022/10/12 08:55:55;;;;;;;39.08;20.13;;;;;;;16.72;67.06;95950.34;5096839;27;20052;-79
2022/10/12 08:58:32;;;;;;;32.97;19.38;;;;;;;16.81;67.11;95964.66;5094651;27;20035;-78
2022/10/12 09:01:19;;;;;;;28.58;19.45;;;;;;;16.51;67.02;95909.69;5093840;27;20177;-78
2022/10/12 09:04:10;;;;;;;31.13;19.13;;;;;;;16.64;66.53;95920.75;5102437;27;20035;-78
2022/10/12 09:06:55;;;;;;;39.60;20.30;;;;;;;16.96;66.67;95967.09;5091685;27;20075;-80
2022/10/12 09:09:39;;;;;;;45.42;20.70;;;;;;;16.86;67.21;95964.56;5109098;27;20055;-79
2022/10/12 09:12:16;;;;;;;39.20;20.58;;;;;;;16.87;67.23;95968.03;5113174;27;20043;-78
2022/10/12 09:14:44;;;;;;;38.25;21.55;;;;;;;16.97;66.93;95966.00;5104136;27;20585;-78
2022/10/12 09:17:39;;;;;;;33.13;19.85;;;;;;;16.95;66.77;95968.16;5124238;27;20062;-78
2022/10/12 09:20:21;;;;;;;40.33;20.50;;;;;;;16.42;67.21;95882.00;5105019;27;20059;-79
2022/10/12 09:22:50;;;;;;;45.60;21.02;;;;;;;16.93;67.10;95946.25;5105371;27;20036;-79
2022/10/12 09:25:23;;;;;;;39.28;20.20;;;;;;;16.92;67.26;95946.53;5099932;27;20142;-78
2022/10/12 09:27:48;;;;;;;35.22;20.30;;;;;;;17.00;67.69;95963.81;5110504;27;20062;-79
2022/10/12 09:30:15;;;;;;;39.47;21.23;;;;;;;16.93;67.79;95965.00;5093203;27;20596;-84
2022/10/12 09:32:53;;;;;;;33.42;21.75;;;;;;;17.04;67.32;95952.22;5083855;27;20187;-85
2022/10/12 09:35:19;;;;;;;36.22;20.48;;;;;;;16.72;67.38;95906.69;5096364;27;20897;-78
2022/10/12 09:37:50;;;;;;;40.25;21.30;;;;;;;16.66;67.63;95921.25;5100143;27;20102;-77
2022/10/12 09:40:22;;;;;;;33.83;19.48;;;;;;;17.10;67.36;95979.72;5104074;27;20063;-77
2022/10/12 09:42:48;;;;;;;43.85;21.45;;;;;;;16.68;67.83;95897.66;5102699;27;20044;-77
2022/10/12 09:45:19;;;;;;;43.03;22.30;;;;;;;17.09;66.88;95937.94;5123911;27;20035;-77
2022/10/12 09:48:18;;;;;;;35.83;19.90;;;;;;;17.37;66.99;95961.00;5099095;27;20415;-77
2022/10/12 09:50:51;;;;;;;35.90;20.38;;;;;;;17.15;67.01;95934.88;5089327;27;20040;-77
2022/10/12 09:53:32;;;;;;;29.58;18.13;;;;;;;17.34;65.65;95966.94;5105209;27;20031;-78
2022/10/12 09:56:04;;;;;;;;;;;;;;;17.35;66.12;95961.28;5103248;27;20145;-77
2022/10/12 09:58:38;;;;;;;33.25;18.98;;;;;;;17.05;65.89;95902.88;5101948;27;19921;-76
2022/10/12 10:01:16;;;;;;;29.35;16.75;;;;;;;17.20;64.28;95924.03;5065661;28;20051;-82
2022/10/12 10:03:42;;;;;;;34.47;16.80;;;;;;;17.41;64.05;95943.22;5068194;28;20035;-77
2022/10/12 10:06:07;;;;;;;25.90;16.52;;;;;;;17.63;64.06;95961.31;5061592;28;20039;-77
2022/10/12 10:08:44;;;;;;;23.33;16.23;;;;;;;17.73;63.57;95955.75;5078806;28;20966;-77
2022/10/12 10:11:15;;;;;;;26.08;17.65;;;;;;;17.27;64.20;95897.63;5067635;28;20043;-77
2022/10/12 10:13:48;;;;;;;29.40;17.10;;;;;;;17.79;63.69;95951.88;5044370;28;20094;-78
2022/10/12 10:16:15;;;;;;;36.15;18.98;;;;;;;17.73;64.50;95956.56;5051109;28;20052;-78
2022/10/12 10:18:54;;;;;;;27.67;18.75;;;;;;;17.34;64.84;95890.00;5057605;28;20051;-77
2022/10/12 10:21:30;;;;;;;31.42;18.65;;;;;;;17.64;64.13;95928.03;5073996;28;20044;-77
2022/10/12 10:23:58;;;;;;;30.13;20.38;;;;;;;17.83;64.08;95928.72;5059526;28;20031;-79
2022/10/12 10:26:25;;;;;;;33.75;18.85;;;;;;;17.68;63.90;95881.56;5070931;28;20040;-78
2022/10/12 10:29:15;;;;;;;29.95;19.23;;;;;;;17.47;63.33;95858.88;5068153;28;20054;-80
2022/10/12 10:31:41;;;;;;;38.65;18.92;;;;;;;17.99;62.77;95934.56;5035697;28;20047;-78
2022/10/12 10:34:19;;;;;;;30.30;18.00;;;;;;;18.16;62.92;95934.69;5061108;28;20135;-78
2022/10/12 10:36:53;;;;;;;29.73;18.15;;;;;;;17.96;62.58;95902.94;5081761;28;20321;-77
2022/10/12 10:39:46;;;;;;;34.13;18.33;;;;;;;18.19;62.18;95930.63;5061625;28;20083;-77
2022/10/12 10:42:18;;;;;;;30.80;17.50;;;;;;;18.23;62.32;95928.94;5056620;28;20082;-78
2022/10/12 10:44:55;;;;;;;26.88;16.55;;;;;;;18.01;61.18;95876.78;5063920;28;20032;-77
2022/10/12 10:47:20;;;;;;;31.13;15.75;;;;;;;18.05;61.26;95885.81;5057784;28;20065;-77
2022/10/12 10:49:54;;;;;;;23.25;15.05;;;;;;;18.04;61.52;95891.50;5081795;28;20047;-77
2022/10/12 10:52:26;;;;;;;22.65;15.23;;;;;;;18.19;61.78;95926.03;5078249;28;20127;-78
2022/10/12 10:55:13;;;;;;;20.65;13.95;;;;;;;18.35;61.13;95913.06;5076868;28;20078;-77
2022/10/12 10:58:03;;;;;;;23.38;15.25;;;;;;;17.96;60.98;95825.91;5061898;28;20142;-77
2022/10/12 11:00:32;;;;;;;27.00;14.90;;;;;;;18.25;60.91;95860.38;5066025;28;20439;-77
2022/10/12 11:03:04;;;;;;;32.40;15.77;;;;;;;18.67;60.21;95910.16;5048242;28;20035;-77
2022/10/12 11:05:45;;;;;;;27.58;16.05;;;;;;;18.43;59.30;95847.88;5080434;28;20044;-78
2022/10/12 11:08:33;;;;;;;26.20;16.58;;;;;;;18.83;59.27;95911.38;5057777;28;20147;-77
2022/10/12 11:11:10;;;;;;;22.30;16.75;;;;;;;18.92;59.43;95911.41;5055894;28;20041;-78
2022/10/12 11:13:46;;;;;;;30.90;16.55;;;;;;;18.61;59.22;95840.75;5074493;28;20104;-80
2022/10/12 11:16:36;;;;;;;22.42;15.13;;;;;;;19.21;58.57;95903.66;5080069;28;20051;-78
2022/10/12 11:19:17;;;;;;;27.65;15.85;;;;;;;18.65;57.87;95810.28;5066930;28;21000;-76
2022/10/12 11:21:47;;;;;;;24.40;15.02;;;;;;;19.00;57.73;95848.03;5063086;28;20043;-77
2022/10/12 11:24:32;;;;;;;33.75;16.45;;;;;;;19.32;57.80;95900.66;5064768;28;20040;-78
2022/10/12 11:27:09;;;;;;;20.80;14.35;;;;;;;19.50;57.04;95899.66;5077613;28;20071;-78
2022/10/12 11:29:36;;;;;;;23.88;15.13;;;;;;;18.98;57.19;95839.50;5081525;28;20043;-78